sensor_id;sensor_type;location;lat;lon;timestamp;pressure;altitude;pressure_sealevel;temperature;humidity
39309;BME280;26019;47.510;19.122;2023-12-22T00:05:32;97872.78;;;5.90;100.00
39309;BME280;26019;47.510;19.122;2023-12-22T00:15:33;97839.38;;;5.93;100.00
39309;BME280;26019;47.510;19.122;2023-12-22T00:25:37;97869.25;;;5.94;100.00
39309;BME280;26019;47.510;19.122;2023-12-22T00:35:39;97906.09;;;5.90;100.00
39309;BME280;26019;47.510;19.122;2023-12-22T00:45:41;97938.94;;;6.10;100.00
39309;BME280;26019;47.510;19.122;2023-12-22T00:55:42;97947.13;;;5.88;100.00
39309;BME280;26019;47.510;19.122;2023-12-22T01:05:44;97922.13;;;5.63;100.00
39309;BME280;26019;47.510;19.122;2023-12-22T01:15:46;97884.81;;;5.51;100.00
39309;BME280;26019;47.510;19.122;2023-12-22T01:25:48;97928.44;;;5.48;100.00
39309;BME280;26019;47.510;19.122;2023-12-22T01:35:51;97951.56;;;5.45;100.00
39309;BME280;26019;47.510;19.122;2023-12-22T01:45:56;97933.78;;;5.39;100.00
39309;BME280;26019;47.510;19.122;2023-12-22T01:56:00;97944.91;;;5.38;100.00
39309;BME280;26019;47.510;19.122;2023-12-22T02:06:10;97908.94;;;5.43;100.00
39309;BME280;26019;47.510;19.122;2023-12-22T02:26:43;97870.91;;;5.62;100.00
39309;BME280;26019;47.510;19.122;2023-12-22T02:36:48;97865.00;;;5.60;100.00
39309;BME280;26019;47.510;19.122;2023-12-22T02:46:51;97911.81;;;5.65;100.00
39309;BME280;26019;47.510;19.122;2023-12-22T02:56:54;97944.97;;;5.71;100.00
39309;BME280;26019;47.510;19.122;2023-12-22T03:06:57;97879.50;;;5.59;100.00
39309;BME280;26019;47.510;19.122;2023-12-22T03:17:04;97878.56;;;5.63;100.00
39309;BME280;26019;47.510;19.122;2023-12-22T03:27:07;97890.88;;;5.82;100.00
39309;BME280;26019;47.510;19.122;2023-12-22T03:37:09;97943.69;;;5.53;100.00
39309;BME280;26019;47.510;19.122;2023-12-22T03:47:11;97949.75;;;5.50;100.00
39309;BME280;26019;47.510;19.122;2023-12-22T03:57:14;97962.19;;;5.66;100.00
39309;BME280;26019;47.510;19.122;2023-12-22T04:07:16;97973.00;;;5.79;100.00
39309;BME280;26019;47.510;19.122;2023-12-22T04:17:18;97997.25;;;5.64;100.00
39309;BME280;26019;47.510;19.122;2023-12-22T04:27:19;98009.34;;;5.59;100.00
39309;BME280;26019;47.510;19.122;2023-12-22T04:37:22;98058.34;;;5.45;100.00
39309;BME280;26019;47.510;19.122;2023-12-22T04:47:24;98038.25;;;4.82;100.00
39309;BME280;26019;47.510;19.122;2023-12-22T04:57:25;98030.41;;;4.43;100.00
39309;BME280;26019;47.510;19.122;2023-12-22T05:07:27;98041.91;;;4.18;100.00
39309;BME280;26019;47.510;19.122;2023-12-22T05:17:29;98063.13;;;4.24;100.00
39309;BME280;26019;47.510;19.122;2023-12-22T05:27:32;98070.25;;;4.04;100.00
39309;BME280;26019;47.510;19.122;2023-12-22T05:37:34;98090.66;;;4.08;100.00
39309;BME280;26019;47.510;19.122;2023-12-22T05:47:36;98100.91;;;4.04;100.00
39309;BME280;26019;47.510;19.122;2023-12-22T05:57:38;98096.53;;;4.13;100.00
39309;BME280;26019;47.510;19.122;2023-12-22T06:07:40;98106.56;;;4.27;100.00
39309;BME280;26019;47.510;19.122;2023-12-22T06:17:42;98135.88;;;4.60;100.00
39309;BME280;26019;47.510;19.122;2023-12-22T06:27:45;98147.47;;;4.80;100.00
39309;BME280;26019;47.510;19.122;2023-12-22T06:37:48;98166.25;;;4.79;93.68
39309;BME280;26019;47.510;19.122;2023-12-22T06:47:51;98181.34;;;4.95;86.13
39309;BME280;26019;47.510;19.122;2023-12-22T06:57:53;98180.31;;;5.05;76.27
39309;BME280;26019;47.510;19.122;2023-12-22T07:07:56;98208.22;;;5.20;70.46
39309;BME280;26019;47.510;19.122;2023-12-22T07:18:00;98209.91;;;5.21;71.81
39309;BME280;26019;47.510;19.122;2023-12-22T07:28:03;98226.75;;;5.32;70.51
39309;BME280;26019;47.510;19.122;2023-12-22T07:38:05;98217.94;;;5.48;66.07
39309;BME280;26019;47.510;19.122;2023-12-22T07:48:07;98229.28;;;6.23;64.90
39309;BME280;26019;47.510;19.122;2023-12-22T07:58:09;98236.88;;;7.68;57.10
39309;BME280;26019;47.510;19.122;2023-12-22T08:08:15;98236.81;;;7.39;58.28
39309;BME280;26019;47.510;19.122;2023-12-22T08:18:17;98246.69;;;8.16;55.39
39309;BME280;26019;47.510;19.122;2023-12-22T08:28:20;98252.53;;;8.51;54.57
39309;BME280;26019;47.510;19.122;2023-12-22T08:38:22;98261.59;;;9.93;49.91
39309;BME280;26019;47.510;19.122;2023-12-22T08:48:24;98278.56;;;8.41;53.66
39309;BME280;26019;47.510;19.122;2023-12-22T08:58:26;98285.97;;;7.25;57.21
39309;BME280;26019;47.510;19.122;2023-12-22T09:08:30;98285.31;;;6.81;58.38
39309;BME280;26019;47.510;19.122;2023-12-22T09:18:32;98309.19;;;6.84;62.55
39309;BME280;26019;47.510;19.122;2023-12-22T09:28:35;98277.63;;;6.81;67.41
39309;BME280;26019;47.510;19.122;2023-12-22T09:38:38;98264.50;;;7.28;65.03
39309;BME280;26019;47.510;19.122;2023-12-22T09:48:42;98286.50;;;7.38;63.42
39309;BME280;26019;47.510;19.122;2023-12-22T09:58:45;98274.97;;;7.20;67.09
39309;BME280;26019;47.510;19.122;2023-12-22T10:08:50;98286.19;;;7.16;69.00
39309;BME280;26019;47.510;19.122;2023-12-22T10:18:53;98276.75;;;7.16;66.76
39309;BME280;26019;47.510;19.122;2023-12-22T10:28:56;98267.78;;;6.98;68.59
39309;BME280;26019;47.510;19.122;2023-12-22T10:39:05;98250.03;;;7.57;65.57
39309;BME280;26019;47.510;19.122;2023-12-22T10:49:07;98215.19;;;10.38;54.87
39309;BME280;26019;47.510;19.122;2023-12-22T10:59:09;98206.50;;;13.50;45.45
39309;BME280;26019;47.510;19.122;2023-12-22T11:09:16;98210.88;;;13.14;44.36
39309;BME280;26019;47.510;19.122;2023-12-22T11:19:20;98216.38;;;11.58;46.24
39309;BME280;26019;47.510;19.122;2023-12-22T11:29:26;98194.84;;;11.76;46.72
39309;BME280;26019;47.510;19.122;2023-12-22T11:39:29;98199.78;;;11.62;47.52
39309;BME280;26019;47.510;19.122;2023-12-22T11:49:35;98187.28;;;8.79;52.49
39309;BME280;26019;47.510;19.122;2023-12-22T11:59:37;98191.59;;;9.55;51.10
39309;BME280;26019;47.510;19.122;2023-12-22T12:09:45;98213.91;;;8.51;52.84
39309;BME280;26019;47.510;19.122;2023-12-22T12:19:51;98222.22;;;7.71;54.29
39309;BME280;26019;47.510;19.122;2023-12-22T12:29:53;98237.47;;;7.46;58.35
39309;BME280;26019;47.510;19.122;2023-12-22T12:39:58;98212.06;;;7.97;57.82
39309;BME280;26019;47.510;19.122;2023-12-22T12:50:05;98210.84;;;6.45;74.11
39309;BME280;26019;47.510;19.122;2023-12-22T13:00:07;98281.94;;;5.00;100.00
39309;BME280;26019;47.510;19.122;2023-12-22T13:10:25;98297.16;;;5.09;100.00
39309;BME280;26019;47.510;19.122;2023-12-22T13:20:27;98330.16;;;4.70;100.00
39309;BME280;26019;47.510;19.122;2023-12-22T13:30:38;98259.94;;;8.89;100.00
39309;BME280;26019;47.510;19.122;2023-12-22T13:40:47;98230.47;;;6.06;100.00
39309;BME280;26019;47.510;19.122;2023-12-22T13:51:01;98230.53;;;5.59;100.00
39309;BME280;26019;47.510;19.122;2023-12-22T14:01:16;98217.53;;;5.23;100.00
39309;BME280;26019;47.510;19.122;2023-12-22T14:11:17;98217.63;;;5.17;100.00
39309;BME280;26019;47.510;19.122;2023-12-22T14:21:19;98239.31;;;4.41;100.00
39309;BME280;26019;47.510;19.122;2023-12-22T14:31:21;98274.69;;;3.29;100.00
39309;BME280;26019;47.510;19.122;2023-12-22T14:41:23;98242.25;;;3.41;100.00
39309;BME280;26019;47.510;19.122;2023-12-22T14:51:25;98287.16;;;3.62;100.00
39309;BME280;26019;47.510;19.122;2023-12-22T15:01:29;98287.66;;;3.94;100.00
39309;BME280;26019;47.510;19.122;2023-12-22T15:11:42;98313.75;;;4.22;100.00
39309;BME280;26019;47.510;19.122;2023-12-22T15:21:45;98249.53;;;4.42;100.00
39309;BME280;26019;47.510;19.122;2023-12-22T15:31:48;98328.69;;;4.53;100.00
39309;BME280;26019;47.510;19.122;2023-12-22T15:41:53;98324.38;;;4.57;100.00
39309;BME280;26019;47.510;19.122;2023-12-22T15:51:55;98332.50;;;4.19;100.00
39309;BME280;26019;47.510;19.122;2023-12-22T16:01:59;98360.47;;;4.33;100.00
39309;BME280;26019;47.510;19.122;2023-12-22T16:12:01;98361.44;;;4.25;100.00
39309;BME280;26019;47.510;19.122;2023-12-22T16:22:04;98351.28;;;4.15;100.00
39309;BME280;26019;47.510;19.122;2023-12-22T16:32:07;98366.72;;;4.08;100.00
39309;BME280;26019;47.510;19.122;2023-12-22T16:42:15;98363.41;;;3.99;100.00
39309;BME280;26019;47.510;19.122;2023-12-22T16:52:18;98355.66;;;4.06;100.00
39309;BME280;26019;47.510;19.122;2023-12-22T17:02:25;98360.66;;;4.16;100.00
39309;BME280;26019;47.510;19.122;2023-12-22T17:12:35;98356.38;;;4.20;100.00
39309;BME280;26019;47.510;19.122;2023-12-22T17:22:38;98350.19;;;4.37;100.00
39309;BME280;26019;47.510;19.122;2023-12-22T17:32:40;98366.53;;;4.26;100.00
39309;BME280;26019;47.510;19.122;2023-12-22T17:42:42;98401.63;;;4.13;100.00
39309;BME280;26019;47.510;19.122;2023-12-22T17:52:45;98366.53;;;3.39;100.00
39309;BME280;26019;47.510;19.122;2023-12-22T18:02:46;98351.44;;;3.06;100.00
39309;BME280;26019;47.510;19.122;2023-12-22T18:12:52;98366.63;;;3.28;100.00
39309;BME280;26019;47.510;19.122;2023-12-22T18:22:54;98385.22;;;3.44;100.00
39309;BME280;26019;47.510;19.122;2023-12-22T18:32:56;98406.50;;;3.41;100.00
39309;BME280;26019;47.510;19.122;2023-12-22T18:42:59;98417.78;;;3.12;100.00
39309;BME280;26019;47.510;19.122;2023-12-22T18:53:04;98413.88;;;2.48;100.00
39309;BME280;26019;47.510;19.122;2023-12-22T19:03:08;98394.34;;;2.34;100.00
39309;BME280;26019;47.510;19.122;2023-12-22T19:13:20;98334.84;;;2.37;100.00
39309;BME280;26019;47.510;19.122;2023-12-22T19:23:38;98316.97;;;2.45;100.00
39309;BME280;26019;47.510;19.122;2023-12-22T19:33:40;98293.94;;;2.60;100.00
39309;BME280;26019;47.510;19.122;2023-12-22T19:43:42;98298.09;;;2.72;100.00
39309;BME280;26019;47.510;19.122;2023-12-22T19:53:45;98285.16;;;2.98;100.00
39309;BME280;26019;47.510;19.122;2023-12-22T20:03:50;98272.25;;;3.19;100.00
39309;BME280;26019;47.510;19.122;2023-12-22T20:13:53;98287.47;;;3.31;100.00
39309;BME280;26019;47.510;19.122;2023-12-22T20:23:59;98299.22;;;3.46;100.00
39309;BME280;26019;47.510;19.122;2023-12-22T20:34:01;98305.88;;;3.64;100.00
39309;BME280;26019;47.510;19.122;2023-12-22T20:44:03;98282.66;;;3.83;100.00
39309;BME280;26019;47.510;19.122;2023-12-22T20:54:05;98263.84;;;3.88;100.00
39309;BME280;26019;47.510;19.122;2023-12-22T21:04:07;98255.38;;;3.83;100.00
39309;BME280;26019;47.510;19.122;2023-12-22T21:14:09;98230.97;;;3.62;100.00
39309;BME280;26019;47.510;19.122;2023-12-22T21:24:12;98260.94;;;3.41;100.00
39309;BME280;26019;47.510;19.122;2023-12-22T21:34:15;98272.19;;;3.25;100.00
39309;BME280;26019;47.510;19.122;2023-12-22T21:44:17;98313.16;;;3.09;100.00
39309;BME280;26019;47.510;19.122;2023-12-22T21:54:19;98324.34;;;2.88;100.00
39309;BME280;26019;47.510;19.122;2023-12-22T22:04:27;98327.88;;;2.72;100.00
39309;BME280;26019;47.510;19.122;2023-12-22T22:14:30;98328.78;;;2.63;100.00
39309;BME280;26019;47.510;19.122;2023-12-22T22:24:36;98312.03;;;2.09;100.00
39309;BME280;26019;47.510;19.122;2023-12-22T22:34:40;98345.25;;;1.72;100.00
39309;BME280;26019;47.510;19.122;2023-12-22T22:44:43;98333.38;;;1.66;100.00
39309;BME280;26019;47.510;19.122;2023-12-22T22:54:47;98330.00;;;1.47;100.00
39309;BME280;26019;47.510;19.122;2023-12-22T23:04:51;98310.50;;;1.37;100.00
39309;BME280;26019;47.510;19.122;2023-12-22T23:14:54;98337.63;;;1.34;100.00
39309;BME280;26019;47.510;19.122;2023-12-22T23:24:56;98369.06;;;1.41;100.00
39309;BME280;26019;47.510;19.122;2023-12-22T23:35:00;98358.03;;;1.48;100.00
39309;BME280;26019;47.510;19.122;2023-12-22T23:45:02;98372.44;;;1.40;100.00
39309;BME280;26019;47.510;19.122;2023-12-22T23:55:05;98366.50;;;1.27;100.00
